sensor_id;sensor_type;location;lat;lon;timestamp;temperature;humidity
67131;HTU21D;54051;53.464;49.532;2023-04-06T00:02:20;6.72;76.01
67131;HTU21D;54051;53.464;49.532;2023-04-06T00:04:46;6.73;76.07
67131;HTU21D;54051;53.464;49.532;2023-04-06T00:07:12;6.67;76.13
67131;HTU21D;54051;53.464;49.532;2023-04-06T00:09:39;6.60;76.48
67131;HTU21D;54051;53.464;49.532;2023-04-06T00:12:06;6.58;76.80
67131;HTU21D;54051;53.464;49.532;2023-04-06T00:14:32;6.38;77.73
67131;HTU21D;54051;53.464;49.532;2023-04-06T00:16:58;6.29;78.26
67131;HTU21D;54051;53.464;49.532;2023-04-06T00:19:24;6.28;78.32
67131;HTU21D;54051;53.464;49.532;2023-04-06T00:21:51;6.30;78.20
67131;HTU21D;54051;53.464;49.532;2023-04-06T00:24:17;6.30;78.36
67131;HTU21D;54051;53.464;49.532;2023-04-06T00:26:43;6.37;78.38
67131;HTU21D;54051;53.464;49.532;2023-04-06T00:29:09;6.43;77.81
67131;HTU21D;54051;53.464;49.532;2023-04-06T00:31:36;6.48;77.48
67131;HTU21D;54051;53.464;49.532;2023-04-06T00:34:02;6.51;77.18
67131;HTU21D;54051;53.464;49.532;2023-04-06T00:36:29;6.45;77.59
67131;HTU21D;54051;53.464;49.532;2023-04-06T00:38:55;6.49;77.82
67131;HTU21D;54051;53.464;49.532;2023-04-06T00:41:22;6.54;77.97
67131;HTU21D;54051;53.464;49.532;2023-04-06T00:43:48;6.63;77.22
67131;HTU21D;54051;53.464;49.532;2023-04-06T00:46:14;6.58;77.01
67131;HTU21D;54051;53.464;49.532;2023-04-06T00:48:40;6.38;77.89
67131;HTU21D;54051;53.464;49.532;2023-04-06T00:51:07;6.33;78.06
67131;HTU21D;54051;53.464;49.532;2023-04-06T00:53:33;6.21;78.59
67131;HTU21D;54051;53.464;49.532;2023-04-06T00:55:59;6.20;78.70
67131;HTU21D;54051;53.464;49.532;2023-04-06T00:58:25;6.14;78.96
67131;HTU21D;54051;53.464;49.532;2023-04-06T01:00:52;6.20;78.70
67131;HTU21D;54051;53.464;49.532;2023-04-06T01:03:18;6.23;78.28
67131;HTU21D;54051;53.464;49.532;2023-04-06T01:05:44;6.23;78.01
67131;HTU21D;54051;53.464;49.532;2023-04-06T01:08:11;6.21;78.05
67131;HTU21D;54051;53.464;49.532;2023-04-06T01:10:37;6.15;78.14
67131;HTU21D;54051;53.464;49.532;2023-04-06T01:13:03;6.13;78.21
67131;HTU21D;54051;53.464;49.532;2023-04-06T01:15:29;5.97;79.05
67131;HTU21D;54051;53.464;49.532;2023-04-06T01:17:56;6.00;79.27
67131;HTU21D;54051;53.464;49.532;2023-04-06T01:20:22;6.08;79.00
67131;HTU21D;54051;53.464;49.532;2023-04-06T01:22:48;5.97;79.53
67131;HTU21D;54051;53.464;49.532;2023-04-06T01:25:14;5.92;79.85
67131;HTU21D;54051;53.464;49.532;2023-04-06T01:27:41;5.86;79.95
67131;HTU21D;54051;53.464;49.532;2023-04-06T01:30:07;5.86;80.01
67131;HTU21D;54051;53.464;49.532;2023-04-06T01:32:33;5.92;79.24
67131;HTU21D;54051;53.464;49.532;2023-04-06T01:35:00;5.80;79.66
67131;HTU21D;54051;53.464;49.532;2023-04-06T01:37:28;5.68;79.95
67131;HTU21D;54051;53.464;49.532;2023-04-06T01:39:58;5.53;80.02
67131;HTU21D;54051;53.464;49.532;2023-04-06T01:42:24;5.50;80.53
67131;HTU21D;54051;53.464;49.532;2023-04-06T01:44:51;5.55;80.07
67131;HTU21D;54051;53.464;49.532;2023-04-06T01:47:18;5.57;80.14
67131;HTU21D;54051;53.464;49.532;2023-04-06T01:49:44;5.68;79.53
67131;HTU21D;54051;53.464;49.532;2023-04-06T01:52:10;5.70;79.33
67131;HTU21D;54051;53.464;49.532;2023-04-06T01:54:36;5.81;78.75
67131;HTU21D;54051;53.464;49.532;2023-04-06T01:57:03;5.81;78.85
67131;HTU21D;54051;53.464;49.532;2023-04-06T01:59:29;5.94;78.50
67131;HTU21D;54051;53.464;49.532;2023-04-06T02:01:55;5.99;77.98
67131;HTU21D;54051;53.464;49.532;2023-04-06T02:04:21;5.96;77.89
67131;HTU21D;54051;53.464;49.532;2023-04-06T02:06:48;5.93;77.88
67131;HTU21D;54051;53.464;49.532;2023-04-06T02:09:14;5.83;78.36
67131;HTU21D;54051;53.464;49.532;2023-04-06T02:11:41;5.81;78.66
67131;HTU21D;54051;53.464;49.532;2023-04-06T02:14:07;5.91;78.40
67131;HTU21D;54051;53.464;49.532;2023-04-06T02:16:33;5.95;78.23
67131;HTU21D;54051;53.464;49.532;2023-04-06T02:18:59;5.84;78.58
67131;HTU21D;54051;53.464;49.532;2023-04-06T02:21:26;5.82;78.98
67131;HTU21D;54051;53.464;49.532;2023-04-06T02:23:52;5.96;78.28
67131;HTU21D;54051;53.464;49.532;2023-04-06T02:26:18;6.16;77.49
67131;HTU21D;54051;53.464;49.532;2023-04-06T02:28:46;6.34;76.76
67131;HTU21D;54051;53.464;49.532;2023-04-06T02:31:12;6.41;76.42
67131;HTU21D;54051;53.464;49.532;2023-04-06T02:33:40;6.49;76.09
67131;HTU21D;54051;53.464;49.532;2023-04-06T02:36:07;6.56;75.93
67131;HTU21D;54051;53.464;49.532;2023-04-06T02:38:33;6.69;75.39
67131;HTU21D;54051;53.464;49.532;2023-04-06T02:41:00;6.90;74.01
67131;HTU21D;54051;53.464;49.532;2023-04-06T02:43:26;6.99;73.35
67131;HTU21D;54051;53.464;49.532;2023-04-06T02:45:52;6.98;73.40
67131;HTU21D;54051;53.464;49.532;2023-04-06T02:48:18;6.85;74.51
67131;HTU21D;54051;53.464;49.532;2023-04-06T02:50:45;7.10;74.20
67131;HTU21D;54051;53.464;49.532;2023-04-06T02:53:11;6.97;74.55
67131;HTU21D;54051;53.464;49.532;2023-04-06T02:55:38;7.02;74.63
67131;HTU21D;54051;53.464;49.532;2023-04-06T02:58:04;7.27;73.52
67131;HTU21D;54051;53.464;49.532;2023-04-06T03:00:30;7.42;72.86
67131;HTU21D;54051;53.464;49.532;2023-04-06T03:02:57;7.52;72.48
67131;HTU21D;54051;53.464;49.532;2023-04-06T03:05:23;7.63;72.01
67131;HTU21D;54051;53.464;49.532;2023-04-06T03:07:49;7.81;71.29
67131;HTU21D;54051;53.464;49.532;2023-04-06T03:10:15;7.97;70.32
67131;HTU21D;54051;53.464;49.532;2023-04-06T03:12:41;7.98;70.08
67131;HTU21D;54051;53.464;49.532;2023-04-06T03:15:08;8.12;69.07
67131;HTU21D;54051;53.464;49.532;2023-04-06T03:17:35;7.98;69.61
67131;HTU21D;54051;53.464;49.532;2023-04-06T03:20:01;8.11;69.42
67131;HTU21D;54051;53.464;49.532;2023-04-06T03:22:28;8.18;69.88
67131;HTU21D;54051;53.464;49.532;2023-04-06T03:24:54;8.22;69.97
67131;HTU21D;54051;53.464;49.532;2023-04-06T03:27:21;8.24;69.90
67131;HTU21D;54051;53.464;49.532;2023-04-06T03:29:47;8.30;69.58
67131;HTU21D;54051;53.464;49.532;2023-04-06T03:32:13;8.22;69.80
67131;HTU21D;54051;53.464;49.532;2023-04-06T03:34:39;8.21;70.03
67131;HTU21D;54051;53.464;49.532;2023-04-06T03:37:06;8.32;69.57
67131;HTU21D;54051;53.464;49.532;2023-04-06T03:39:32;8.85;67.92
67131;HTU21D;54051;53.464;49.532;2023-04-06T03:41:58;10.75;60.47
67131;HTU21D;54051;53.464;49.532;2023-04-06T03:44:24;10.93;59.38
67131;HTU21D;54051;53.464;49.532;2023-04-06T03:46:50;11.07;59.16
67131;HTU21D;54051;53.464;49.532;2023-04-06T03:49:17;13.61;51.75
67131;HTU21D;54051;53.464;49.532;2023-04-06T03:51:43;16.41;43.10
67131;HTU21D;54051;53.464;49.532;2023-04-06T03:54:09;17.90;39.20
67131;HTU21D;54051;53.464;49.532;2023-04-06T03:56:36;19.00;36.59
67131;HTU21D;54051;53.464;49.532;2023-04-06T03:59:02;20.13;34.02
67131;HTU21D;54051;53.464;49.532;2023-04-06T04:01:28;21.28;31.15
67131;HTU21D;54051;53.464;49.532;2023-04-06T04:03:54;21.97;29.19
67131;HTU21D;54051;53.464;49.532;2023-04-06T04:06:21;22.19;28.56
67131;HTU21D;54051;53.464;49.532;2023-04-06T04:08:47;22.69;27.67
67131;HTU21D;54051;53.464;49.532;2023-04-06T04:11:13;22.54;27.78
67131;HTU21D;54051;53.464;49.532;2023-04-06T04:13:41;22.99;26.81
67131;HTU21D;54051;53.464;49.532;2023-04-06T04:16:07;22.56;27.69
67131;HTU21D;54051;53.464;49.532;2023-04-06T04:18:34;22.70;27.37
67131;HTU21D;54051;53.464;49.532;2023-04-06T04:21:00;23.05;27.25
67131;HTU21D;54051;53.464;49.532;2023-04-06T04:23:26;24.03;25.36
67131;HTU21D;54051;53.464;49.532;2023-04-06T04:25:53;24.64;24.08
67131;HTU21D;54051;53.464;49.532;2023-04-06T04:28:19;24.87;23.23
67131;HTU21D;54051;53.464;49.532;2023-04-06T04:30:46;24.65;23.85
67131;HTU21D;54051;53.464;49.532;2023-04-06T04:33:12;24.78;23.40
67131;HTU21D;54051;53.464;49.532;2023-04-06T04:35:38;24.77;23.82
67131;HTU21D;54051;53.464;49.532;2023-04-06T04:38:04;25.51;22.34
67131;HTU21D;54051;53.464;49.532;2023-04-06T04:40:31;25.48;22.26
67131;HTU21D;54051;53.464;49.532;2023-04-06T04:42:57;25.43;22.62
67131;HTU21D;54051;53.464;49.532;2023-04-06T04:45:23;25.69;21.85
67131;HTU21D;54051;53.464;49.532;2023-04-06T04:47:49;24.89;23.02
67131;HTU21D;54051;53.464;49.532;2023-04-06T04:50:15;24.25;23.83
67131;HTU21D;54051;53.464;49.532;2023-04-06T04:52:42;23.25;25.94
67131;HTU21D;54051;53.464;49.532;2023-04-06T04:55:08;23.50;25.68
67131;HTU21D;54051;53.464;49.532;2023-04-06T04:57:34;23.56;25.67
67131;HTU21D;54051;53.464;49.532;2023-04-06T05:00:00;24.73;23.46
67131;HTU21D;54051;53.464;49.532;2023-04-06T05:02:28;25.36;22.69
67131;HTU21D;54051;53.464;49.532;2023-04-06T05:04:54;26.50;20.60
67131;HTU21D;54051;53.464;49.532;2023-04-06T05:07:20;27.31;19.41
67131;HTU21D;54051;53.464;49.532;2023-04-06T05:09:46;27.84;18.58
67131;HTU21D;54051;53.464;49.532;2023-04-06T05:12:13;28.15;18.07
67131;HTU21D;54051;53.464;49.532;2023-04-06T05:14:39;28.50;17.47
67131;HTU21D;54051;53.464;49.532;2023-04-06T05:17:06;28.49;17.33
67131;HTU21D;54051;53.464;49.532;2023-04-06T05:19:33;28.58;17.69
67131;HTU21D;54051;53.464;49.532;2023-04-06T05:21:59;28.95;16.97
67131;HTU21D;54051;53.464;49.532;2023-04-06T05:24:25;28.71;16.83
67131;HTU21D;54051;53.464;49.532;2023-04-06T05:26:51;28.04;17.88
67131;HTU21D;54051;53.464;49.532;2023-04-06T05:29:18;28.69;17.06
67131;HTU21D;54051;53.464;49.532;2023-04-06T05:31:44;28.28;17.50
67131;HTU21D;54051;53.464;49.532;2023-04-06T05:34:10;27.65;18.35
67131;HTU21D;54051;53.464;49.532;2023-04-06T05:36:38;27.72;18.28
67131;HTU21D;54051;53.464;49.532;2023-04-06T05:39:06;27.50;18.68
67131;HTU21D;54051;53.464;49.532;2023-04-06T05:41:33;26.91;19.83
67131;HTU21D;54051;53.464;49.532;2023-04-06T05:43:59;27.27;19.12
67131;HTU21D;54051;53.464;49.532;2023-04-06T05:46:26;27.43;19.18
67131;HTU21D;54051;53.464;49.532;2023-04-06T05:48:52;27.35;19.15
67131;HTU21D;54051;53.464;49.532;2023-04-06T05:51:18;26.87;20.25
67131;HTU21D;54051;53.464;49.532;2023-04-06T05:53:44;27.12;19.93
67131;HTU21D;54051;53.464;49.532;2023-04-06T05:56:12;27.26;19.21
67131;HTU21D;54051;53.464;49.532;2023-04-06T05:58:38;27.42;19.10
67131;HTU21D;54051;53.464;49.532;2023-04-06T06:01:04;27.24;19.12
67131;HTU21D;54051;53.464;49.532;2023-04-06T06:03:31;26.58;20.29
67131;HTU21D;54051;53.464;49.532;2023-04-06T06:06:00;26.83;20.31
67131;HTU21D;54051;53.464;49.532;2023-04-06T06:08:27;26.72;20.79
67131;HTU21D;54051;53.464;49.532;2023-04-06T06:10:54;27.66;19.03
67131;HTU21D;54051;53.464;49.532;2023-04-06T06:13:21;28.50;17.83
67131;HTU21D;54051;53.464;49.532;2023-04-06T06:15:48;29.43;16.87
67131;HTU21D;54051;53.464;49.532;2023-04-06T06:18:14;29.29;16.71
67131;HTU21D;54051;53.464;49.532;2023-04-06T06:20:40;28.34;17.68
67131;HTU21D;54051;53.464;49.532;2023-04-06T06:23:07;28.61;17.82
67131;HTU21D;54051;53.464;49.532;2023-04-06T06:25:33;29.07;17.06
67131;HTU21D;54051;53.464;49.532;2023-04-06T06:27:59;29.00;17.60
67131;HTU21D;54051;53.464;49.532;2023-04-06T06:30:25;29.57;16.74
67131;HTU21D;54051;53.464;49.532;2023-04-06T06:32:52;29.38;17.17
67131;HTU21D;54051;53.464;49.532;2023-04-06T06:35:18;30.56;15.57
67131;HTU21D;54051;53.464;49.532;2023-04-06T06:37:44;30.02;16.96
67131;HTU21D;54051;53.464;49.532;2023-04-06T06:40:10;30.55;15.26
67131;HTU21D;54051;53.464;49.532;2023-04-06T06:42:39;30.90;15.46
67131;HTU21D;54051;53.464;49.532;2023-04-06T06:45:07;31.30;15.29
67131;HTU21D;54051;53.464;49.532;2023-04-06T06:47:33;31.02;14.66
67131;HTU21D;54051;53.464;49.532;2023-04-06T06:49:59;30.32;15.93
67131;HTU21D;54051;53.464;49.532;2023-04-06T06:52:26;29.68;16.80
67131;HTU21D;54051;53.464;49.532;2023-04-06T06:54:52;29.91;16.83
67131;HTU21D;54051;53.464;49.532;2023-04-06T06:57:18;29.59;16.73
67131;HTU21D;54051;53.464;49.532;2023-04-06T06:59:44;28.84;17.54
67131;HTU21D;54051;53.464;49.532;2023-04-06T07:02:11;28.98;17.82
67131;HTU21D;54051;53.464;49.532;2023-04-06T07:04:37;29.61;16.56
67131;HTU21D;54051;53.464;49.532;2023-04-06T07:07:03;29.17;17.06
67131;HTU21D;54051;53.464;49.532;2023-04-06T07:09:29;28.84;17.46
67131;HTU21D;54051;53.464;49.532;2023-04-06T07:11:56;28.34;18.98
67131;HTU21D;54051;53.464;49.532;2023-04-06T07:14:22;29.34;16.73
67131;HTU21D;54051;53.464;49.532;2023-04-06T07:16:48;29.72;16.24
67131;HTU21D;54051;53.464;49.532;2023-04-06T07:19:16;29.97;15.97
67131;HTU21D;54051;53.464;49.532;2023-04-06T07:21:42;30.21;15.64
67131;HTU21D;54051;53.464;49.532;2023-04-06T07:24:08;28.32;17.92
67131;HTU21D;54051;53.464;49.532;2023-04-06T07:26:34;28.24;18.49
67131;HTU21D;54051;53.464;49.532;2023-04-06T07:29:00;29.39;16.97
67131;HTU21D;54051;53.464;49.532;2023-04-06T07:31:26;29.52;16.54
67131;HTU21D;54051;53.464;49.532;2023-04-06T07:33:52;30.44;15.03
67131;HTU21D;54051;53.464;49.532;2023-04-06T07:36:19;31.92;13.38
67131;HTU21D;54051;53.464;49.532;2023-04-06T07:38:46;32.87;12.09
67131;HTU21D;54051;53.464;49.532;2023-04-06T07:41:12;33.50;11.43
67131;HTU21D;54051;53.464;49.532;2023-04-06T07:43:38;33.97;10.96
67131;HTU21D;54051;53.464;49.532;2023-04-06T07:46:04;34.01;11.20
67131;HTU21D;54051;53.464;49.532;2023-04-06T07:48:30;33.50;11.79
67131;HTU21D;54051;53.464;49.532;2023-04-06T07:51:04;34.18;10.27
67131;HTU21D;54051;53.464;49.532;2023-04-06T07:53:30;32.82;11.05
67131;HTU21D;54051;53.464;49.532;2023-04-06T07:55:58;32.13;12.32
67131;HTU21D;54051;53.464;49.532;2023-04-06T07:58:25;32.27;11.99
67131;HTU21D;54051;53.464;49.532;2023-04-06T08:00:51;32.35;11.86
67131;HTU21D;54051;53.464;49.532;2023-04-06T08:03:18;32.73;11.01
67131;HTU21D;54051;53.464;49.532;2023-04-06T08:05:46;33.05;10.45
67131;HTU21D;54051;53.464;49.532;2023-04-06T08:08:12;32.73;10.33
67131;HTU21D;54051;53.464;49.532;2023-04-06T08:10:39;32.85;10.46
67131;HTU21D;54051;53.464;49.532;2023-04-06T08:13:05;33.04;9.72
67131;HTU21D;54051;53.464;49.532;2023-04-06T08:15:31;32.60;10.44
67131;HTU21D;54051;53.464;49.532;2023-04-06T08:17:58;31.49;11.57
67131;HTU21D;54051;53.464;49.532;2023-04-06T08:20:24;30.57;12.51
67131;HTU21D;54051;53.464;49.532;2023-04-06T08:22:50;30.84;12.29
67131;HTU21D;54051;53.464;49.532;2023-04-06T08:25:16;31.82;11.51
67131;HTU21D;54051;53.464;49.532;2023-04-06T08:27:43;32.27;10.37
67131;HTU21D;54051;53.464;49.532;2023-04-06T08:30:09;32.09;10.89
67131;HTU21D;54051;53.464;49.532;2023-04-06T08:32:35;31.71;11.33
67131;HTU21D;54051;53.464;49.532;2023-04-06T08:35:02;31.86;11.19
67131;HTU21D;54051;53.464;49.532;2023-04-06T08:37:28;29.78;13.06
67131;HTU21D;54051;53.464;49.532;2023-04-06T08:39:54;28.03;15.34
67131;HTU21D;54051;53.464;49.532;2023-04-06T08:42:21;29.06;14.24
67131;HTU21D;54051;53.464;49.532;2023-04-06T08:44:51;29.71;13.00
67131;HTU21D;54051;53.464;49.532;2023-04-06T08:47:18;30.35;11.80
67131;HTU21D;54051;53.464;49.532;2023-04-06T08:49:45;28.27;14.50
67131;HTU21D;54051;53.464;49.532;2023-04-06T08:52:12;28.84;14.36
67131;HTU21D;54051;53.464;49.532;2023-04-06T08:54:39;27.67;15.32
67131;HTU21D;54051;53.464;49.532;2023-04-06T08:57:05;24.27;19.59
67131;HTU21D;54051;53.464;49.532;2023-04-06T08:59:33;22.69;22.29
67131;HTU21D;54051;53.464;49.532;2023-04-06T09:02:03;22.71;23.01
67131;HTU21D;54051;53.464;49.532;2023-04-06T09:04:29;21.75;23.30
67131;HTU21D;54051;53.464;49.532;2023-04-06T09:06:56;20.88;24.58
67131;HTU21D;54051;53.464;49.532;2023-04-06T09:09:22;20.54;25.19
67131;HTU21D;54051;53.464;49.532;2023-04-06T09:11:51;20.59;25.33
67131;HTU21D;54051;53.464;49.532;2023-04-06T09:14:36;20.59;25.50
67131;HTU21D;54051;53.464;49.532;2023-04-06T09:17:03;20.42;24.77
67131;HTU21D;54051;53.464;49.532;2023-04-06T09:19:30;20.33;25.56
67131;HTU21D;54051;53.464;49.532;2023-04-06T09:22:06;19.89;25.55
67131;HTU21D;54051;53.464;49.532;2023-04-06T09:24:46;19.57;26.45
67131;HTU21D;54051;53.464;49.532;2023-04-06T09:27:13;19.87;26.19
67131;HTU21D;54051;53.464;49.532;2023-04-06T09:29:41;20.20;25.55
67131;HTU21D;54051;53.464;49.532;2023-04-06T09:32:08;19.82;25.37
67131;HTU21D;54051;53.464;49.532;2023-04-06T09:34:42;19.91;25.91
67131;HTU21D;54051;53.464;49.532;2023-04-06T09:37:15;20.16;25.81
67131;HTU21D;54051;53.464;49.532;2023-04-06T09:39:41;20.14;25.92
67131;HTU21D;54051;53.464;49.532;2023-04-06T09:42:08;20.32;25.84
67131;HTU21D;54051;53.464;49.532;2023-04-06T09:44:34;20.26;26.26
67131;HTU21D;54051;53.464;49.532;2023-04-06T09:47:01;20.40;26.29
67131;HTU21D;54051;53.464;49.532;2023-04-06T09:49:33;20.13;25.89
67131;HTU21D;54051;53.464;49.532;2023-04-06T09:52:01;19.89;26.35
67131;HTU21D;54051;53.464;49.532;2023-04-06T09:54:29;19.89;26.54
67131;HTU21D;54051;53.464;49.532;2023-04-06T09:59:50;19.61;27.12
67131;HTU21D;54051;53.464;49.532;2023-04-06T10:02:32;19.99;26.88
67131;HTU21D;54051;53.464;49.532;2023-04-06T10:05:19;20.13;26.38
67131;HTU21D;54051;53.464;49.532;2023-04-06T10:07:48;20.25;26.26
67131;HTU21D;54051;53.464;49.532;2023-04-06T10:10:16;20.61;25.94
67131;HTU21D;54051;53.464;49.532;2023-04-06T10:12:43;20.65;25.05
67131;HTU21D;54051;53.464;49.532;2023-04-06T10:15:10;20.34;26.14
67131;HTU21D;54051;53.464;49.532;2023-04-06T10:17:37;20.27;26.41
67131;HTU21D;54051;53.464;49.532;2023-04-06T10:25:32;19.92;26.19
67131;HTU21D;54051;53.464;49.532;2023-04-06T10:28:06;19.30;27.81
67131;HTU21D;54051;53.464;49.532;2023-04-06T10:30:34;18.95;28.82
67131;HTU21D;54051;53.464;49.532;2023-04-06T10:33:12;18.87;28.48
67131;HTU21D;54051;53.464;49.532;2023-04-06T10:35:39;18.97;28.99
67131;HTU21D;54051;53.464;49.532;2023-04-06T10:38:05;19.48;28.13
67131;HTU21D;54051;53.464;49.532;2023-04-06T10:40:32;19.87;27.02
67131;HTU21D;54051;53.464;49.532;2023-04-06T10:43:20;19.54;27.61
67131;HTU21D;54051;53.464;49.532;2023-04-06T10:45:57;19.26;27.98
67131;HTU21D;54051;53.464;49.532;2023-04-06T10:48:39;18.88;28.56
67131;HTU21D;54051;53.464;49.532;2023-04-06T10:51:11;18.81;28.67
67131;HTU21D;54051;53.464;49.532;2023-04-06T10:53:37;18.95;28.31
67131;HTU21D;54051;53.464;49.532;2023-04-06T10:56:10;19.33;27.34
67131;HTU21D;54051;53.464;49.532;2023-04-06T10:58:44;19.89;26.55
67131;HTU21D;54051;53.464;49.532;2023-04-06T11:01:12;20.22;26.81
67131;HTU21D;54051;53.464;49.532;2023-04-06T11:03:47;20.14;27.13
67131;HTU21D;54051;53.464;49.532;2023-04-06T11:06:24;19.37;27.95
67131;HTU21D;54051;53.464;49.532;2023-04-06T11:08:53;18.86;29.52
67131;HTU21D;54051;53.464;49.532;2023-04-06T11:11:22;18.56;30.54
67131;HTU21D;54051;53.464;49.532;2023-04-06T11:13:57;18.67;30.57
67131;HTU21D;54051;53.464;49.532;2023-04-06T11:16:28;18.84;30.45
67131;HTU21D;54051;53.464;49.532;2023-04-06T11:18:59;19.10;29.84
67131;HTU21D;54051;53.464;49.532;2023-04-06T11:21:33;19.27;29.68
67131;HTU21D;54051;53.464;49.532;2023-04-06T11:24:19;19.62;29.17
67131;HTU21D;54051;53.464;49.532;2023-04-06T11:29:20;19.82;28.70
67131;HTU21D;54051;53.464;49.532;2023-04-06T11:31:57;19.76;29.61
67131;HTU21D;54051;53.464;49.532;2023-04-06T11:34:24;20.00;28.89
67131;HTU21D;54051;53.464;49.532;2023-04-06T11:36:56;19.96;28.52
67131;HTU21D;54051;53.464;49.532;2023-04-06T11:39:24;19.68;28.85
67131;HTU21D;54051;53.464;49.532;2023-04-06T11:41:51;19.38;29.10
67131;HTU21D;54051;53.464;49.532;2023-04-06T11:44:49;19.01;29.89
67131;HTU21D;54051;53.464;49.532;2023-04-06T11:47:16;18.87;29.93
67131;HTU21D;54051;53.464;49.532;2023-04-06T11:49:43;18.76;29.89
67131;HTU21D;54051;53.464;49.532;2023-04-06T11:52:20;18.85;29.66
67131;HTU21D;54051;53.464;49.532;2023-04-06T11:54:50;18.59;30.15
67131;HTU21D;54051;53.464;49.532;2023-04-06T11:57:18;18.58;30.53
67131;HTU21D;54051;53.464;49.532;2023-04-06T11:59:46;18.40;30.45
67131;HTU21D;54051;53.464;49.532;2023-04-06T12:02:12;18.28;30.77
67131;HTU21D;54051;53.464;49.532;2023-04-06T12:04:38;18.19;30.83
67131;HTU21D;54051;53.464;49.532;2023-04-06T12:07:05;18.19;31.25
67131;HTU21D;54051;53.464;49.532;2023-04-06T12:09:31;18.15;31.22
67131;HTU21D;54051;53.464;49.532;2023-04-06T12:11:57;18.07;31.85
67131;HTU21D;54051;53.464;49.532;2023-04-06T12:14:24;18.11;31.54
67131;HTU21D;54051;53.464;49.532;2023-04-06T12:16:50;18.03;31.96
67131;HTU21D;54051;53.464;49.532;2023-04-06T12:19:17;17.94;32.17
67131;HTU21D;54051;53.464;49.532;2023-04-06T12:21:43;17.91;32.02
67131;HTU21D;54051;53.464;49.532;2023-04-06T12:24:09;17.96;32.18
67131;HTU21D;54051;53.464;49.532;2023-04-06T12:26:36;18.18;31.70
67131;HTU21D;54051;53.464;49.532;2023-04-06T12:29:02;18.23;32.03
67131;HTU21D;54051;53.464;49.532;2023-04-06T12:31:36;18.37;31.85
67131;HTU21D;54051;53.464;49.532;2023-04-06T12:34:04;18.42;32.02
67131;HTU21D;54051;53.464;49.532;2023-04-06T12:36:30;18.55;32.02
67131;HTU21D;54051;53.464;49.532;2023-04-06T12:38:57;18.74;31.33
67131;HTU21D;54051;53.464;49.532;2023-04-06T12:41:23;18.56;32.06
67131;HTU21D;54051;53.464;49.532;2023-04-06T12:43:50;18.32;32.64
67131;HTU21D;54051;53.464;49.532;2023-04-06T12:46:16;17.99;33.47
67131;HTU21D;54051;53.464;49.532;2023-04-06T12:48:43;17.80;33.78
67131;HTU21D;54051;53.464;49.532;2023-04-06T12:51:09;17.74;34.09
67131;HTU21D;54051;53.464;49.532;2023-04-06T12:53:36;17.61;34.46
67131;HTU21D;54051;53.464;49.532;2023-04-06T12:56:05;17.60;34.22
67131;HTU21D;54051;53.464;49.532;2023-04-06T12:58:36;17.68;34.37
67131;HTU21D;54051;53.464;49.532;2023-04-06T13:01:06;17.77;33.99
67131;HTU21D;54051;53.464;49.532;2023-04-06T13:03:32;17.62;34.07
67131;HTU21D;54051;53.464;49.532;2023-04-06T13:06:00;17.60;34.12
67131;HTU21D;54051;53.464;49.532;2023-04-06T13:08:26;17.62;34.13
67131;HTU21D;54051;53.464;49.532;2023-04-06T13:10:53;17.48;34.50
67131;HTU21D;54051;53.464;49.532;2023-04-06T13:13:24;17.38;34.78
67131;HTU21D;54051;53.464;49.532;2023-04-06T13:15:52;17.25;35.08
67131;HTU21D;54051;53.464;49.532;2023-04-06T13:18:18;17.09;35.70
67131;HTU21D;54051;53.464;49.532;2023-04-06T13:20:46;17.08;35.79
67131;HTU21D;54051;53.464;49.532;2023-04-06T13:23:13;17.03;35.96
67131;HTU21D;54051;53.464;49.532;2023-04-06T13:25:39;17.05;36.16
67131;HTU21D;54051;53.464;49.532;2023-04-06T13:28:05;17.01;36.14
67131;HTU21D;54051;53.464;49.532;2023-04-06T13:30:32;16.98;36.18
67131;HTU21D;54051;53.464;49.532;2023-04-06T13:32:58;16.90;36.47
67131;HTU21D;54051;53.464;49.532;2023-04-06T13:35:24;16.84;36.63
67131;HTU21D;54051;53.464;49.532;2023-04-06T13:37:50;16.80;36.86
67131;HTU21D;54051;53.464;49.532;2023-04-06T13:40:18;16.77;36.96
67131;HTU21D;54051;53.464;49.532;2023-04-06T13:42:44;16.77;37.15
67131;HTU21D;54051;53.464;49.532;2023-04-06T13:45:12;16.78;37.05
67131;HTU21D;54051;53.464;49.532;2023-04-06T13:47:38;16.80;36.92
67131;HTU21D;54051;53.464;49.532;2023-04-06T13:50:05;16.76;36.66
67131;HTU21D;54051;53.464;49.532;2023-04-06T13:52:31;16.71;37.02
67131;HTU21D;54051;53.464;49.532;2023-04-06T13:54:58;16.71;36.54
67131;HTU21D;54051;53.464;49.532;2023-04-06T13:57:24;16.71;36.86
67131;HTU21D;54051;53.464;49.532;2023-04-06T13:59:50;16.75;35.95
67131;HTU21D;54051;53.464;49.532;2023-04-06T14:02:17;16.77;35.81
67131;HTU21D;54051;53.464;49.532;2023-04-06T14:04:43;16.73;35.89
67131;HTU21D;54051;53.464;49.532;2023-04-06T14:07:10;16.75;36.04
67131;HTU21D;54051;53.464;49.532;2023-04-06T14:09:36;16.89;35.79
67131;HTU21D;54051;53.464;49.532;2023-04-06T14:12:03;17.00;35.33
67131;HTU21D;54051;53.464;49.532;2023-04-06T14:14:29;17.13;35.87
67131;HTU21D;54051;53.464;49.532;2023-04-06T14:16:55;17.41;36.47
67131;HTU21D;54051;53.464;49.532;2023-04-06T14:19:21;17.51;35.83
67131;HTU21D;54051;53.464;49.532;2023-04-06T14:21:48;17.65;34.94
67131;HTU21D;54051;53.464;49.532;2023-04-06T14:24:15;17.66;36.40
67131;HTU21D;54051;53.464;49.532;2023-04-06T14:26:42;17.53;35.25
67131;HTU21D;54051;53.464;49.532;2023-04-06T14:29:08;17.48;35.02
67131;HTU21D;54051;53.464;49.532;2023-04-06T14:31:35;17.24;35.21
67131;HTU21D;54051;53.464;49.532;2023-04-06T14:34:02;17.25;35.44
67131;HTU21D;54051;53.464;49.532;2023-04-06T14:36:33;17.36;34.94
67131;HTU21D;54051;53.464;49.532;2023-04-06T14:39:05;17.40;34.72
67131;HTU21D;54051;53.464;49.532;2023-04-06T14:41:32;17.22;35.28
67131;HTU21D;54051;53.464;49.532;2023-04-06T14:43:58;17.04;35.89
67131;HTU21D;54051;53.464;49.532;2023-04-06T14:46:25;17.03;35.37
67131;HTU21D;54051;53.464;49.532;2023-04-06T14:48:56;16.91;37.40
67131;HTU21D;54051;53.464;49.532;2023-04-06T14:51:26;17.01;36.35
67131;HTU21D;54051;53.464;49.532;2023-04-06T14:53:53;16.90;36.85
67131;HTU21D;54051;53.464;49.532;2023-04-06T14:56:23;16.94;35.79
67131;HTU21D;54051;53.464;49.532;2023-04-06T14:58:50;16.73;37.33
67131;HTU21D;54051;53.464;49.532;2023-04-06T15:01:18;16.79;36.52
67131;HTU21D;54051;53.464;49.532;2023-04-06T15:03:46;16.64;37.04
67131;HTU21D;54051;53.464;49.532;2023-04-06T15:06:14;16.51;37.37
67131;HTU21D;54051;53.464;49.532;2023-04-06T15:08:43;16.40;37.59
67131;HTU21D;54051;53.464;49.532;2023-04-06T15:11:11;16.21;37.79
67131;HTU21D;54051;53.464;49.532;2023-04-06T15:13:38;16.12;38.58
67131;HTU21D;54051;53.464;49.532;2023-04-06T15:16:06;16.04;38.03
67131;HTU21D;54051;53.464;49.532;2023-04-06T15:18:33;15.87;38.29